Time;durP1;ratioP1;P1;durP2;ratioP2;P2;SDS_P1;SDS_P2;PMS_P1;PMS_P2;Temp;Humidity;BMP_temperature;BMP_pressure;BME280_temperature;BME280_humidity;BME280_pressure;Samples;Min_cycle;Max_cycle;Signal;HPM_P1;HPM_P2
2021/03/23 00:00:41;;;;;;;4.35;1.90;;;;;;;;;;5115006;28;20108;-87
2021/03/23 00:03:08;;;;;;;2.78;1.60;;;;;;;;;;5115044;28;20558;-87
2021/03/23 00:05:35;;;;;;;7.63;2.17;;;;;;;;;;5114705;28;20163;-87
2021/03/23 00:08:01;;;;;;;6.05;2.28;;;;;;;;;;5097728;28;20066;-87
2021/03/23 00:10:27;;;;;;;5.55;2.20;;;;;;;;;;5114667;28;20104;-87
2021/03/23 00:12:55;;;;;;;3.97;1.67;;;;;;;;;;5097983;28;20066;-87
2021/03/23 00:15:21;;;;;;;4.30;1.80;;;;;;;;;;5114565;28;20032;-87
2021/03/23 00:17:48;;;;;;;3.10;1.92;;;;;;;;;;5114586;28;20071;-86
2021/03/23 00:20:14;;;;;;;5.10;1.85;;;;;;;;;;5114674;28;20478;-86
2021/03/23 00:22:40;;;;;;;3.15;1.55;;;;;;;;;;5114726;28;20411;-86
2021/03/23 00:25:07;;;;;;;5.03;1.92;;;;;;;;;;5114399;28;20136;-86
2021/03/23 00:27:34;;;;;;;6.70;1.65;;;;;;;;;;5114594;28;20046;-86
2021/03/23 00:30:00;;;;;;;7.00;1.88;;;;;;;;;;5114281;28;20050;-86
2021/03/23 00:32:26;;;;;;;4.22;1.65;;;;;;;;;;5114472;28;20084;-85
2021/03/23 00:34:52;;;;;;;5.28;1.58;;;;;;;;;;5132335;28;20047;-86
2021/03/23 00:37:18;;;;;;;3.58;1.88;;;;;;;;;;5097561;28;20095;-86
2021/03/23 00:39:44;;;;;;;3.30;1.77;;;;;;;;;;5132425;28;20470;-85
2021/03/23 00:42:10;;;;;;;3.10;1.50;;;;;;;;;;5097567;28;20117;-86
2021/03/23 00:44:36;;;;;;;3.05;1.73;;;;;;;;;;5114230;28;20114;-86
2021/03/23 00:47:02;;;;;;;3.75;2.03;;;;;;;;;;5114379;28;20467;-85
2021/03/23 00:49:28;;;;;;;7.07;2.00;;;;;;;;;;5114415;28;20043;-86
2021/03/23 00:51:55;;;;;;;4.28;2.30;;;;;;;;;;5114329;28;20375;-85
2021/03/23 00:54:21;;;;;;;4.45;1.80;;;;;;;;;;5132191;28;20402;-85
2021/03/23 00:56:47;;;;;;;3.03;1.73;;;;;;;;;;5113999;28;20549;-85
2021/03/23 00:59:13;;;;;;;4.53;2.05;;;;;;;;;;5135123;27;20041;-85
2021/03/23 01:01:39;;;;;;;4.38;1.77;;;;;;;;;;5117859;27;20070;-85
2021/03/23 01:04:05;;;;;;;4.28;1.77;;;;;;;;;;5117601;27;20039;-86
2021/03/23 01:06:31;;;;;;;4.10;2.10;;;;;;;;;;5117592;27;20039;-85
2021/03/23 01:08:57;;;;;;;4.43;2.05;;;;;;;;;;5135759;27;20039;-85
2021/03/23 01:11:23;;;;;;;3.13;1.65;;;;;;;;;;5100623;27;20066;-85
2021/03/23 01:13:50;;;;;;;5.63;2.20;;;;;;;;;;5100627;27;20134;-85
2021/03/23 01:16:16;;;;;;;3.78;2.08;;;;;;;;;;5117430;27;20034;-86
2021/03/23 01:18:42;;;;;;;2.67;1.88;;;;;;;;;;5100596;27;20478;-86
2021/03/23 01:21:08;;;;;;;3.30;1.90;;;;;;;;;;5117449;27;20118;-86
2021/03/23 01:23:34;;;;;;;5.57;2.10;;;;;;;;;;5117099;27;20064;-87
2021/03/23 01:26:00;;;;;;;4.03;1.70;;;;;;;;;;5100380;27;20035;-87
2021/03/23 01:28:26;;;;;;;5.93;2.03;;;;;;;;;;5100196;27;20035;-86
2021/03/23 01:30:52;;;;;;;5.20;2.00;;;;;;;;;;5100189;27;20035;-87
2021/03/23 01:33:18;;;;;;;4.45;2.10;;;;;;;;;;5117040;27;20092;-86
2021/03/23 01:35:44;;;;;;;5.72;2.03;;;;;;;;;;5100293;27;20043;-86
2021/03/23 01:38:10;;;;;;;3.90;2.25;;;;;;;;;;5116960;27;20140;-86
2021/03/23 01:40:38;;;;;;;5.75;2.17;;;;;;;;;;5100050;27;20067;-86
2021/03/23 01:43:04;;;;;;;4.07;2.20;;;;;;;;;;5100098;27;20113;-86
2021/03/23 01:45:31;;;;;;;6.35;2.53;;;;;;;;;;5117000;27;20080;-86
2021/03/23 01:47:57;;;;;;;4.63;2.20;;;;;;;;;;5135122;27;20068;-86
2021/03/23 01:50:24;;;;;;;5.85;2.17;;;;;;;;;;5099794;27;20035;-86
2021/03/23 01:52:58;;;;;;;5.32;2.50;;;;;;;;;;5099850;27;20126;-86
2021/03/23 01:55:24;;;;;;;3.58;2.10;;;;;;;;;;5116629;27;20043;-86
2021/03/23 01:57:50;;;;;;;4.00;2.22;;;;;;;;;;5116778;27;20486;-86
2021/03/23 02:00:16;;;;;;;3.35;2.25;;;;;;;;;;5135071;27;20133;-86
2021/03/23 02:02:42;;;;;;;3.85;2.10;;;;;;;;;;5116731;27;20158;-86
2021/03/23 02:05:09;;;;;;;7.03;2.40;;;;;;;;;;5116540;27;20288;-86
2021/03/23 02:07:35;;;;;;;5.20;2.33;;;;;;;;;;5116575;27;20118;-86
2021/03/23 02:10:01;;;;;;;5.00;2.10;;;;;;;;;;5116400;27;20032;-86
2021/03/23 02:12:28;;;;;;;8.18;2.78;;;;;;;;;;5116427;27;20089;-86
2021/03/23 02:14:56;;;;;;;5.25;2.50;;;;;;;;;;5116684;27;20047;-86
2021/03/23 02:17:23;;;;;;;7.40;2.95;;;;;;;;;;5116374;27;20038;-86
2021/03/23 02:19:50;;;;;;;5.90;2.75;;;;;;;;;;5116054;27;20043;-86
2021/03/23 02:22:27;;;;;;;4.20;2.38;;;;;;;;;;5116491;27;20061;-86
2021/03/23 02:24:53;;;;;;;6.22;2.88;;;;;;;;;;5116102;27;20039;-86
2021/03/23 02:27:19;;;;;;;5.13;2.78;;;;;;;;;;5116349;27;20122;-86
2021/03/23 02:29:45;;;;;;;8.15;3.47;;;;;;;;;;5099215;27;20039;-86
2021/03/23 02:32:11;;;;;;;10.07;3.45;;;;;;;;;;5115971;27;20088;-86
2021/03/23 02:34:37;;;;;;;8.40;3.28;;;;;;;;;;5098591;27;20059;-86
2021/03/23 02:37:03;;;;;;;6.97;3.25;;;;;;;;;;5098972;27;20061;-86
2021/03/23 02:39:30;;;;;;;8.90;3.35;;;;;;;;;;5115895;27;20038;-86
2021/03/23 02:41:56;;;;;;;5.68;3.13;;;;;;;;;;5115900;27;20109;-86
2021/03/23 02:44:23;;;;;;;6.22;3.47;;;;;;;;;;5115893;27;20035;-86
2021/03/23 02:46:49;;;;;;;8.63;3.47;;;;;;;;;;5115854;27;20039;-86
2021/03/23 02:49:15;;;;;;;7.35;3.58;;;;;;;;;;5098708;27;20491;-86
2021/03/23 02:51:41;;;;;;;6.93;3.53;;;;;;;;;;5098696;27;20430;-86
2021/03/23 02:54:07;;;;;;;10.35;3.53;;;;;;;;;;5098565;27;20042;-86
2021/03/23 02:56:33;;;;;;;6.75;3.25;;;;;;;;;;5115796;27;20039;-86
2021/03/23 02:58:59;;;;;;;7.38;3.50;;;;;;;;;;5098708;27;20058;-86
2021/03/23 03:01:25;;;;;;;7.30;3.50;;;;;;;;;;5098446;27;20039;-86
2021/03/23 03:03:51;;;;;;;11.00;4.05;;;;;;;;;;5098757;27;20112;-86
2021/03/23 03:06:17;;;;;;;5.43;3.30;;;;;;;;;;5098587;27;20378;-86
2021/03/23 03:08:43;;;;;;;6.95;3.40;;;;;;;;;;5098444;27;20042;-86
2021/03/23 03:11:10;;;;;;;8.05;3.50;;;;;;;;;;5115560;27;20091;-86
2021/03/23 03:13:36;;;;;;;9.85;3.90;;;;;;;;;;5115412;27;20504;-86
2021/03/23 03:16:02;;;;;;;9.18;3.83;;;;;;;;;;5115103;27;20433;-86
2021/03/23 03:18:29;;;;;;;7.90;4.13;;;;;;;;;;5115308;27;20055;-86
2021/03/23 03:20:56;;;;;;;7.53;3.63;;;;;;;;;;5080816;27;20039;-86
2021/03/23 03:23:22;;;;;;;8.70;3.88;;;;;;;;;;5115254;27;20035;-86
2021/03/23 03:25:48;;;;;;;7.55;3.45;;;;;;;;;;5115191;27;20100;-86
2021/03/23 03:28:14;;;;;;;8.43;4.35;;;;;;;;;;5098361;27;20118;-85
2021/03/23 03:30:41;;;;;;;7.93;3.75;;;;;;;;;;5115057;27;20031;-86
2021/03/23 03:33:07;;;;;;;7.53;4.20;;;;;;;;;;5098169;27;20042;-86
2021/03/23 03:35:35;;;;;;;10.13;4.82;;;;;;;;;;5094220;28;20055;-86
2021/03/23 03:38:01;;;;;;;13.07;5.30;;;;;;;;;;5111542;28;20035;-85
2021/03/23 03:40:35;;;;;;;8.15;5.03;;;;;;;;;;5094564;28;20661;-85
2021/03/23 03:43:01;;;;;;;11.93;5.82;;;;;;;;;;5111621;28;20397;-85
2021/03/23 03:45:28;;;;;;;10.25;4.97;;;;;;;;;;5094464;28;20039;-85
2021/03/23 03:47:54;;;;;;;11.68;5.32;;;;;;;;;;5094726;28;20412;-86
2021/03/23 03:50:20;;;;;;;12.45;6.05;;;;;;;;;;5094655;28;20081;-86
2021/03/23 03:52:46;;;;;;;14.60;6.15;;;;;;;;;;5112564;28;20103;-85
2021/03/23 03:55:13;;;;;;;14.20;6.13;;;;;;;;;;5111174;28;20107;-85
2021/03/23 03:57:39;;;;;;;12.85;5.93;;;;;;;;;;5094357;28;20035;-85
2021/03/23 04:00:06;;;;;;;11.82;6.53;;;;;;;;;;5111228;28;20543;-85
2021/03/23 04:02:32;;;;;;;15.18;6.88;;;;;;;;;;5111266;28;20031;-85
2021/03/23 04:04:58;;;;;;;12.18;5.88;;;;;;;;;;5094355;28;20494;-85
2021/03/23 04:07:24;;;;;;;18.55;6.68;;;;;;;;;;5094442;28;20042;-85
2021/03/23 04:09:50;;;;;;;15.02;7.28;;;;;;;;;;5111240;28;20039;-85
2021/03/23 04:12:16;;;;;;;15.73;7.43;;;;;;;;;;5112212;28;20681;-85
2021/03/23 04:14:42;;;;;;;20.52;8.30;;;;;;;;;;5111010;28;20471;-85
2021/03/23 04:17:08;;;;;;;17.38;7.68;;;;;;;;;;5112314;28;20506;-85
2021/03/23 04:19:34;;;;;;;18.20;8.10;;;;;;;;;;5111161;28;20038;-84
2021/03/23 04:22:00;;;;;;;18.92;8.93;;;;;;;;;;5111056;28;20550;-85
2021/03/23 04:24:26;;;;;;;18.08;8.80;;;;;;;;;;5111058;28;20032;-85
2021/03/23 04:26:53;;;;;;;22.55;9.40;;;;;;;;;;5111008;28;20032;-83
2021/03/23 04:29:19;;;;;;;18.17;9.25;;;;;;;;;;5110926;28;20036;-84
2021/03/23 04:31:45;;;;;;;23.45;10.80;;;;;;;;;;5112113;28;20031;-84
2021/03/23 04:34:12;;;;;;;20.20;10.10;;;;;;;;;;5123314;27;20435;-85
2021/03/23 04:36:38;;;;;;;21.23;9.88;;;;;;;;;;5118467;27;20397;-85
2021/03/23 04:39:05;;;;;;;21.00;10.18;;;;;;;;;;5118221;27;20036;-85
2021/03/23 04:41:31;;;;;;;21.65;10.68;;;;;;;;;;5084173;27;20065;-84
2021/03/23 04:43:57;;;;;;;21.05;9.65;;;;;;;;;;5118313;27;20390;-84
2021/03/23 04:46:24;;;;;;;27.30;11.23;;;;;;;;;;5118101;27;20486;-84
2021/03/23 04:48:50;;;;;;;22.55;10.27;;;;;;;;;;5118138;27;20075;-85
2021/03/23 04:51:16;;;;;;;22.88;11.15;;;;;;;;;;5136281;27;20062;-84
2021/03/23 04:53:42;;;;;;;20.88;10.57;;;;;;;;;;5118028;27;20478;-85
2021/03/23 04:56:09;;;;;;;21.42;10.65;;;;;;;;;;5136042;27;20043;-84
2021/03/23 04:58:35;;;;;;;23.17;10.85;;;;;;;;;;5101084;27;20475;-83
2021/03/23 05:01:01;;;;;;;27.75;10.70;;;;;;;;;;5117996;27;20031;-84
2021/03/23 05:03:28;;;;;;;18.15;9.07;;;;;;;;;;5118037;27;20490;-86
2021/03/23 05:05:54;;;;;;;22.92;10.25;;;;;;;;;;5100975;27;20047;-87
2021/03/23 05:08:21;;;;;;;20.73;10.00;;;;;;;;;;5100687;27;20031;-87
2021/03/23 05:10:47;;;;;;;23.73;10.90;;;;;;;;;;5117724;27;20070;-86
2021/03/23 05:13:13;;;;;;;21.35;10.40;;;;;;;;;;5117669;27;20084;-85
2021/03/23 05:15:39;;;;;;;23.90;12.00;;;;;;;;;;5100523;27;20035;-84
2021/03/23 05:18:05;;;;;;;19.98;10.35;;;;;;;;;;5100700;27;20558;-85
2021/03/23 05:20:31;;;;;;;21.23;10.13;;;;;;;;;;5117572;27;20035;-85
2021/03/23 05:22:58;;;;;;;25.10;11.38;;;;;;;;;;5100644;27;20102;-84
2021/03/23 05:25:24;;;;;;;23.30;11.30;;;;;;;;;;5100232;27;20404;-85
2021/03/23 05:27:50;;;;;;;23.10;11.18;;;;;;;;;;5117414;27;20070;-85
2021/03/23 05:30:16;;;;;;;22.35;10.82;;;;;;;;;;5117277;27;20030;-85
2021/03/23 05:32:42;;;;;;;20.08;10.05;;;;;;;;;;5117364;27;20036;-85
2021/03/23 05:35:08;;;;;;;22.92;10.75;;;;;;;;;;5100066;27;20055;-85
2021/03/23 05:37:34;;;;;;;22.00;11.23;;;;;;;;;;5100191;27;20046;-86
2021/03/23 05:40:00;;;;;;;22.45;10.20;;;;;;;;;;5135615;27;20058;-84
2021/03/23 05:42:42;;;;;;;20.95;10.00;;;;;;;;;;5135611;27;20035;-85
2021/03/23 05:45:08;;;;;;;19.10;10.30;;;;;;;;;;5116564;27;20184;-85
2021/03/23 05:47:35;;;;;;;23.98;11.05;;;;;;;;;;5135229;27;20480;-85
2021/03/23 05:50:20;;;;;;;21.60;10.82;;;;;;;;;;5117144;27;20489;-86
2021/03/23 05:52:48;;;;;;;25.05;10.73;;;;;;;;;;5135081;27;20031;-85
2021/03/23 05:55:32;;;;;;;21.67;10.85;;;;;;;;;;5099779;27;20505;-85
2021/03/23 05:57:59;;;;;;;23.58;9.70;;;;;;;;;;5116786;27;20161;-85
2021/03/23 06:00:27;;;;;;;20.73;10.85;;;;;;;;;;5099728;27;20035;-85
2021/03/23 06:02:54;;;;;;;21.35;10.55;;;;;;;;;;5099714;27;20114;-85
2021/03/23 06:05:38;;;;;;;23.17;11.35;;;;;;;;;;5134828;27;20035;-85
2021/03/23 06:08:06;;;;;;;22.30;11.20;;;;;;;;;;5135035;27;20039;-83
2021/03/23 06:10:33;;;;;;;21.75;11.80;;;;;;;;;;5116502;27;20036;-85
2021/03/23 06:13:02;;;;;;;21.85;10.68;;;;;;;;;;5099555;27;20067;-84
2021/03/23 06:15:51;;;;;;;23.55;11.00;;;;;;;;;;5099301;27;20259;-84
2021/03/23 06:18:19;;;;;;;23.15;10.88;;;;;;;;;;5124935;27;20058;-84
2021/03/23 06:20:49;;;;;;;19.42;10.73;;;;;;;;;;5134595;27;20035;-85
2021/03/23 06:23:15;;;;;;;22.15;9.43;;;;;;;;;;5116434;27;20035;-85
2021/03/23 06:25:48;;;;;;;22.63;10.90;;;;;;;;;;5134282;27;20049;-85
2021/03/23 06:28:24;;;;;;;20.02;9.95;;;;;;;;;;5116016;27;20047;-84
2021/03/23 06:30:57;;;;;;;18.70;9.23;;;;;;;;;;5116159;27;20439;-85
2021/03/23 06:33:24;;;;;;;23.00;10.52;;;;;;;;;;5098935;27;20118;-85
2021/03/23 06:35:54;;;;;;;22.63;9.68;;;;;;;;;;5098899;27;20039;-84
2021/03/23 06:38:24;;;;;;;19.20;9.85;;;;;;;;;;5116145;27;20077;-85
2021/03/23 06:41:08;;;;;;;22.52;9.32;;;;;;;;;;5116089;27;20505;-85
2021/03/23 06:43:35;;;;;;;18.38;9.73;;;;;;;;;;5134268;27;20034;-85
2021/03/23 06:46:02;;;;;;;21.25;10.50;;;;;;;;;;5098994;27;20046;-89
2021/03/23 06:48:28;;;;;;;21.17;9.40;;;;;;;;;;5116353;27;20118;-89
2021/03/23 06:51:16;;;;;;;25.73;10.50;;;;;;;;;;5099558;27;20039;-89
2021/03/23 06:53:42;;;;;;;20.58;9.77;;;;;;;;;;5116468;27;20118;-86
2021/03/23 06:56:14;;;;;;;21.70;10.90;;;;;;;;;;5098063;27;20118;-88
2021/03/23 06:58:40;;;;;;;24.63;9.88;;;;;;;;;;5099684;27;20031;-90
2021/03/23 07:01:10;;;;;;;19.88;10.80;;;;;;;;;;5099518;27;20039;-90
2021/03/23 07:03:38;;;;;;;22.40;10.77;;;;;;;;;;5099975;27;20036;-96
2021/03/23 07:06:16;;;;;;;20.20;10.45;;;;;;;;;;5082272;27;20051;-85
2021/03/23 07:08:42;;;;;;;25.23;11.10;;;;;;;;;;5098525;27;20410;-85
2021/03/23 07:11:09;;;;;;;25.38;10.88;;;;;;;;;;5115402;27;20087;-85
2021/03/23 07:13:36;;;;;;;21.10;11.02;;;;;;;;;;5115252;27;20114;-88
2021/03/23 07:16:12;;;;;;;20.77;9.93;;;;;;;;;;5115551;27;20039;-85
2021/03/23 07:18:41;;;;;;;23.80;11.23;;;;;;;;;;5115466;27;20398;-85
2021/03/23 07:21:23;;;;;;;25.38;11.48;;;;;;;;;;5098484;27;20456;-84
2021/03/23 07:24:03;;;;;;;23.88;11.25;;;;;;;;;;5133326;27;20481;-85
2021/03/23 07:26:29;;;;;;;23.65;11.50;;;;;;;;;;5115341;28;20417;-84
2021/03/23 07:29:14;;;;;;;25.35;11.70;;;;;;;;;;5115232;27;20504;-84
2021/03/23 07:31:47;;;;;;;29.27;12.88;;;;;;;;;;5133363;27;20394;-84
2021/03/23 07:34:14;;;;;;;22.98;10.73;;;;;;;;;;5114748;27;20141;-83
2021/03/23 07:36:43;;;;;;;22.02;10.85;;;;;;;;;;5115047;27;20039;-85
2021/03/23 07:39:20;;;;;;;23.98;12.05;;;;;;;;;;5133200;28;20047;-84
2021/03/23 07:41:47;;;;;;;26.75;12.25;;;;;;;;;;5115084;27;20057;-85
2021/03/23 07:44:39;;;;;;;25.77;11.43;;;;;;;;;;5097901;28;20043;-86
2021/03/23 07:47:22;;;;;;;29.27;12.57;;;;;;;;;;5101444;28;20418;-84
2021/03/23 07:49:48;;;;;;;;;;;;;;;;;;5133560;28;20122;-85
2021/03/23 07:52:14;;;;;;;30.40;13.05;;;;;;;;;;5133186;28;20377;-85
2021/03/23 07:54:41;;;;;;;29.63;13.85;;;;;;;;;;5114748;28;20451;-85
2021/03/23 07:57:07;;;;;;;33.60;13.93;;;;;;;;;;5115662;28;20035;-88
2021/03/23 07:59:37;;;;;;;26.17;12.80;;;;;;;;;;5115379;28;20092;-87
2021/03/23 08:02:10;;;;;;;34.30;14.60;;;;;;;;;;5114730;28;20435;-87
2021/03/23 08:04:37;;;;;;;;;;;;;;;;;;5115657;28;20394;-86
2021/03/23 08:07:24;;;;;;;31.58;14.15;;;;;;;;;;5115605;27;19915;-86
2021/03/23 08:09:50;;;;;;;28.33;13.90;;;;;;;;;;5118689;27;20050;-86
2021/03/23 08:12:31;;;;;;;29.98;14.40;;;;;;;;;;5118926;27;20117;-85
2021/03/23 08:15:03;;;;;;;27.52;13.93;;;;;;;;;;5118873;27;20050;-87
2021/03/23 08:17:48;;;;;;;30.90;14.75;;;;;;;;;;5137348;27;20039;-87
2021/03/23 08:20:21;;;;;;;28.13;13.65;;;;;;;;;;5118471;27;20543;-86
2021/03/23 08:22:53;;;;;;;32.47;14.70;;;;;;;;;;5136989;27;20035;-85
2021/03/23 08:25:31;;;;;;;30.48;14.40;;;;;;;;;;5118798;27;20066;-86
2021/03/23 08:28:11;;;;;;;30.42;14.60;;;;;;;;;;5101584;27;20092;-86
2021/03/23 08:30:46;;;;;;;30.05;14.45;;;;;;;;;;5101575;27;20027;-87
2021/03/23 08:33:24;;;;;;;31.83;14.88;;;;;;;;;;5118251;27;20474;-86
2021/03/23 08:35:50;;;;;;;28.30;15.15;;;;;;;;;;5117854;27;20059;-87
2021/03/23 08:38:17;;;;;;;30.25;14.98;;;;;;;;;;5136642;27;20031;-86
2021/03/23 08:40:48;;;;;;;26.38;14.15;;;;;;;;;;5118251;27;20039;-87
2021/03/23 08:43:18;;;;;;;31.17;15.13;;;;;;;;;;5118227;27;20039;-87
2021/03/23 08:45:49;;;;;;;26.75;15.68;;;;;;;;;;5101189;27;20039;-87
2021/03/23 08:48:22;;;;;;;26.73;15.15;;;;;;;;;;5118359;27;20103;-86
2021/03/23 08:50:48;;;;;;;27.00;15.70;;;;;;;;;;5118317;27;20035;-86
2021/03/23 08:53:44;;;;;;;25.92;14.77;;;;;;;;;;5118084;27;20089;-87
2021/03/23 08:56:12;;;;;;;31.15;15.82;;;;;;;;;;5119035;27;20410;-87
2021/03/23 08:58:39;;;;;;;31.20;16.13;;;;;;;;;;5118090;27;20046;-86
2021/03/23 09:01:06;;;;;;;27.98;16.30;;;;;;;;;;5117731;27;20535;-87
2021/03/23 09:03:50;;;;;;;27.98;15.68;;;;;;;;;;5101052;27;20450;-87
2021/03/23 09:06:17;;;;;;;27.75;17.05;;;;;;;;;;5100657;27;20058;-87
2021/03/23 09:08:53;;;;;;;25.27;17.10;;;;;;;;;;5101045;27;20482;-87
2021/03/23 09:11:31;;;;;;;29.65;16.30;;;;;;;;;;5117870;27;20080;-86
2021/03/23 09:14:01;;;;;;;26.92;16.08;;;;;;;;;;5117483;27;20536;-86
2021/03/23 09:16:43;;;;;;;24.02;15.73;;;;;;;;;;5117650;27;20035;-87
2021/03/23 09:19:09;;;;;;;29.88;18.00;;;;;;;;;;5117001;27;20035;-86
2021/03/23 09:21:54;;;;;;;32.53;19.08;;;;;;;;;;5117771;27;20087;-86
2021/03/23 09:24:26;;;;;;;31.02;18.70;;;;;;;;;;5135647;27;20034;-87
2021/03/23 09:26:52;;;;;;;29.15;17.83;;;;;;;;;;5117175;27;20201;-87
2021/03/23 09:29:30;;;;;;;29.27;18.10;;;;;;;;;;5100643;27;20047;-86
2021/03/23 09:31:56;;;;;;;29.10;17.60;;;;;;;;;;5117164;27;20046;-87
2021/03/23 09:34:45;;;;;;;29.65;18.20;;;;;;;;;;5116885;27;20051;-87
2021/03/23 09:37:31;;;;;;;33.33;19.13;;;;;;;;;;5097198;27;20134;-86
2021/03/23 09:39:57;;;;;;;31.92;18.17;;;;;;;;;;5100431;27;20065;-85
2021/03/23 09:42:25;;;;;;;33.45;18.25;;;;;;;;;;5100110;27;20489;-86
2021/03/23 09:45:17;;;;;;;31.17;17.92;;;;;;;;;;5117087;27;20043;-85
2021/03/23 09:47:54;;;;;;;34.45;19.25;;;;;;;;;;5103416;27;20059;-87
2021/03/23 09:50:26;;;;;;;36.20;20.42;;;;;;;;;;5099978;27;20047;-86
2021/03/23 09:53:22;;;;;;;35.63;19.65;;;;;;;;;;5099938;27;20092;-86
2021/03/23 09:55:48;;;;;;;34.22;19.30;;;;;;;;;;5117554;27;20055;-85
2021/03/23 09:58:20;;;;;;;34.80;19.85;;;;;;;;;;5099918;27;20031;-83
2021/03/23 10:00:46;;;;;;;38.10;20.58;;;;;;;;;;5117232;27;20065;-87
2021/03/23 10:03:29;;;;;;;33.25;19.52;;;;;;;;;;5116858;27;20043;-86
2021/03/23 10:06:05;;;;;;;37.78;20.35;;;;;;;;;;5099615;27;20049;-86
2021/03/23 10:08:35;;;;;;;33.90;18.52;;;;;;;;;;5116752;27;20031;-85
2021/03/23 10:11:05;;;;;;;35.65;19.83;;;;;;;;;;5100369;27;20046;-86
2021/03/23 10:13:31;;;;;;;34.30;18.60;;;;;;;;;;5116819;27;20043;-86
2021/03/23 10:16:00;;;;;;;40.60;19.95;;;;;;;;;;5099618;27;20035;-84
2021/03/23 10:18:27;;;;;;;36.08;21.38;;;;;;;;;;5110580;28;20036;-86
2021/03/23 10:20:56;;;;;;;35.92;19.83;;;;;;;;;;5094502;27;20112;-89
2021/03/23 10:23:23;;;;;;;30.58;18.55;;;;;;;;;;5078375;28;20047;-88
2021/03/23 10:25:49;;;;;;;32.70;19.45;;;;;;;;;;5077775;27;20044;-88
2021/03/23 10:28:23;;;;;;;35.67;20.58;;;;;;;;;;5095756;28;20035;-88
2021/03/23 10:30:50;;;;;;;31.77;19.83;;;;;;;;;;5078758;28;20134;-88
2021/03/23 10:33:20;;;;;;;36.97;21.10;;;;;;;;;;5078703;28;20043;-86
2021/03/23 10:35:46;;;;;;;31.55;20.05;;;;;;;;;;5078387;28;20052;-87
2021/03/23 10:38:39;;;;;;;34.65;20.70;;;;;;;;;;5095308;28;20042;-87
2021/03/23 10:41:17;;;;;;;32.17;19.98;;;;;;;;;;5091120;28;20123;-86
2021/03/23 10:43:43;;;;;;;33.58;20.90;;;;;;;;;;5095639;28;20118;-88
2021/03/23 10:46:28;;;;;;;31.63;20.73;;;;;;;;;;5078324;28;20379;-88
2021/03/23 10:48:54;;;;;;;35.45;21.15;;;;;;;;;;5113571;28;20038;-88
2021/03/23 10:51:25;;;;;;;38.35;22.00;;;;;;;;;;5081157;28;20483;-86
2021/03/23 10:53:58;;;;;;;34.22;22.00;;;;;;;;;;5096561;28;20491;-87
2021/03/23 10:56:27;;;;;;;34.30;20.67;;;;;;;;;;5094871;28;20097;-87
2021/03/23 10:59:13;;;;;;;31.05;20.20;;;;;;;;;;5095069;28;20502;-86
2021/03/23 11:01:59;;;;;;;33.20;20.83;;;;;;;;;;5077949;28;20110;-87
2021/03/23 11:04:25;;;;;;;32.22;20.27;;;;;;;;;;5077841;28;20493;-87
2021/03/23 11:06:52;;;;;;;36.35;20.83;;;;;;;;;;5078006;28;20044;-87
2021/03/23 11:09:19;;;;;;;35.03;20.80;;;;;;;;;;5094920;28;20051;-87
2021/03/23 11:11:45;;;;;;;35.80;20.08;;;;;;;;;;5078232;28;20040;-85
2021/03/23 11:14:13;;;;;;;36.25;22.02;;;;;;;;;;5094787;28;20115;-86
2021/03/23 11:16:42;;;;;;;33.72;21.38;;;;;;;;;;5095060;28;20046;-87
2021/03/23 11:19:26;;;;;;;26.73;18.10;;;;;;;;;;5094748;28;20046;-87
2021/03/23 11:21:56;;;;;;;32.45;20.23;;;;;;;;;;5078418;28;20036;-88
2021/03/23 11:24:23;;;;;;;35.40;21.25;;;;;;;;;;5078446;28;20475;-85
2021/03/23 11:26:49;;;;;;;30.13;20.23;;;;;;;;;;5094635;28;20035;-85
2021/03/23 11:29:17;;;;;;;33.58;21.27;;;;;;;;;;5094498;28;20494;-86
2021/03/23 11:31:43;;;;;;;32.10;19.77;;;;;;;;;;5112408;28;20110;-86
2021/03/23 11:34:09;;;;;;;30.58;19.85;;;;;;;;;;5094038;28;20052;-85
2021/03/23 11:36:35;;;;;;;35.17;20.45;;;;;;;;;;5077549;28;20324;-86
2021/03/23 11:39:01;;;;;;;31.98;20.73;;;;;;;;;;5094335;28;20059;-86
2021/03/23 11:41:27;;;;;;;28.73;19.25;;;;;;;;;;5112352;28;20036;-86
2021/03/23 11:44:00;;;;;;;35.45;21.25;;;;;;;;;;5112222;28;20063;-86
2021/03/23 11:46:27;;;;;;;31.85;19.27;;;;;;;;;;5094157;28;20040;-85
2021/03/23 11:48:55;;;;;;;34.08;19.55;;;;;;;;;;5094348;28;20051;-86
2021/03/23 11:51:23;;;;;;;29.23;18.70;;;;;;;;;;5094605;28;20035;-86
2021/03/23 11:53:49;;;;;;;32.95;19.67;;;;;;;;;;5077642;28;20490;-86
2021/03/23 11:56:16;;;;;;;28.27;18.52;;;;;;;;;;5077157;28;20039;-86
2021/03/23 11:58:42;;;;;;;29.65;18.65;;;;;;;;;;5094289;28;20040;-86
2021/03/23 12:01:08;;;;;;;31.67;19.65;;;;;;;;;;5112118;28;20040;-86
2021/03/23 12:03:34;;;;;;;37.92;20.05;;;;;;;;;;5077328;28;20032;-86
2021/03/23 12:06:01;;;;;;;35.88;20.40;;;;;;;;;;5112157;28;20031;-86
2021/03/23 12:08:34;;;;;;;33.40;19.02;;;;;;;;;;5094103;28;20035;-86
2021/03/23 12:11:13;;;;;;;32.83;19.85;;;;;;;;;;5094321;28;20043;-86
2021/03/23 12:13:57;;;;;;;33.25;19.67;;;;;;;;;;5094407;28;20039;-86
2021/03/23 12:16:28;;;;;;;32.38;19.67;;;;;;;;;;5094177;28;20043;-86
2021/03/23 12:18:54;;;;;;;31.55;20.10;;;;;;;;;;5112195;28;20039;-85
2021/03/23 12:21:22;;;;;;;34.63;21.60;;;;;;;;;;5077397;28;20471;-86
2021/03/23 12:23:48;;;;;;;32.90;20.50;;;;;;;;;;5094204;28;20065;-86
2021/03/23 12:26:16;;;;;;;39.65;23.33;;;;;;;;;;5112028;28;20483;-86
2021/03/23 12:28:43;;;;;;;34.75;21.63;;;;;;;;;;5093825;28;20039;-86
2021/03/23 12:31:10;;;;;;;42.72;23.67;;;;;;;;;;5077303;28;20479;-86
2021/03/23 12:33:36;;;;;;;35.05;21.33;;;;;;;;;;5093708;28;20419;-86
2021/03/23 12:36:03;;;;;;;35.53;21.63;;;;;;;;;;5077020;28;20036;-86
2021/03/23 12:38:29;;;;;;;35.88;22.00;;;;;;;;;;5077186;28;20048;-87
2021/03/23 12:40:55;;;;;;;40.33;24.30;;;;;;;;;;5077095;28;20039;-87
2021/03/23 12:43:24;;;;;;;40.63;23.27;;;;;;;;;;5077099;28;20083;-87
2021/03/23 12:45:50;;;;;;;37.58;22.92;;;;;;;;;;5093871;28;20509;-87
2021/03/23 12:48:17;;;;;;;35.85;21.35;;;;;;;;;;5093490;28;20043;-87
2021/03/23 12:50:43;;;;;;;40.13;23.45;;;;;;;;;;5093787;28;20036;-87
2021/03/23 12:53:11;;;;;;;44.83;24.40;;;;;;;;;;5076603;28;20070;-87
2021/03/23 12:55:37;;;;;;;36.88;22.33;;;;;;;;;;5079727;28;20050;-87
2021/03/23 12:58:03;;;;;;;45.58;23.92;;;;;;;;;;5096932;28;20399;-88
2021/03/23 13:00:31;;;;;;;40.70;24.45;;;;;;;;;;5097449;28;20040;-88
2021/03/23 13:02:57;;;;;;;45.28;24.50;;;;;;;;;;5079280;28;20063;-87
2021/03/23 13:05:23;;;;;;;41.25;23.25;;;;;;;;;;5096171;28;20035;-87
2021/03/23 13:07:50;;;;;;;41.67;24.17;;;;;;;;;;5097103;28;20046;-85
2021/03/23 13:10:31;;;;;;;40.65;23.10;;;;;;;;;;5097237;28;20047;-87
2021/03/23 13:12:58;;;;;;;39.45;23.98;;;;;;;;;;5116557;28;20059;-87
2021/03/23 13:15:24;;;;;;;41.05;23.10;;;;;;;;;;5080144;28;20051;-87
2021/03/23 13:17:50;;;;;;;41.17;23.35;;;;;;;;;;5097052;28;20118;-87
2021/03/23 13:20:17;;;;;;;41.00;23.15;;;;;;;;;;5079587;28;20086;-87
2021/03/23 13:22:44;;;;;;;39.22;23.20;;;;;;;;;;5096987;28;20371;-87
2021/03/23 13:25:15;;;;;;;40.45;23.95;;;;;;;;;;5079841;28;20039;-87
2021/03/23 13:27:42;;;;;;;43.25;23.50;;;;;;;;;;5097142;28;20046;-87
2021/03/23 13:30:16;;;;;;;42.90;23.85;;;;;;;;;;5096834;28;20042;-86
2021/03/23 13:32:42;;;;;;;42.72;24.27;;;;;;;;;;5079607;28;20067;-87
2021/03/23 13:35:10;;;;;;;39.90;22.73;;;;;;;;;;5096396;28;20149;-87
2021/03/23 13:37:36;;;;;;;40.78;22.13;;;;;;;;;;5079743;28;20104;-87
2021/03/23 13:40:08;;;;;;;42.72;23.85;;;;;;;;;;5079820;28;20394;-87
2021/03/23 13:42:38;;;;;;;42.63;23.87;;;;;;;;;;5096610;28;20040;-88
2021/03/23 13:45:13;;;;;;;40.20;22.83;;;;;;;;;;5114438;28;20086;-87
2021/03/23 13:47:40;;;;;;;45.47;24.50;;;;;;;;;;5096234;28;20055;-87
2021/03/23 13:50:07;;;;;;;38.70;23.20;;;;;;;;;;5079727;28;20478;-92
2021/03/23 13:52:34;;;;;;;40.63;23.08;;;;;;;;;;5079491;28;20054;-87
2021/03/23 13:55:01;;;;;;;39.10;22.48;;;;;;;;;;5079221;28;20046;-87
2021/03/23 13:57:27;;;;;;;40.65;22.90;;;;;;;;;;5096429;28;20032;-85
2021/03/23 13:59:53;;;;;;;40.40;23.60;;;;;;;;;;5114285;28;20039;-88
2021/03/23 14:02:23;;;;;;;39.15;22.63;;;;;;;;;;5078383;28;20118;-88
2021/03/23 14:04:49;;;;;;;42.63;23.52;;;;;;;;;;5078771;28;20043;-88
2021/03/23 14:07:16;;;;;;;44.72;24.02;;;;;;;;;;5096125;28;20039;-87
2021/03/23 14:09:42;;;;;;;38.58;23.20;;;;;;;;;;5079108;28;20040;-87
2021/03/23 14:12:19;;;;;;;42.40;23.02;;;;;;;;;;5079085;28;20126;-88
2021/03/23 14:14:45;;;;;;;42.22;22.67;;;;;;;;;;5095763;28;20131;-88
2021/03/23 14:17:12;;;;;;;42.17;23.90;;;;;;;;;;5095862;28;20110;-88
2021/03/23 14:19:38;;;;;;;39.97;22.52;;;;;;;;;;5095804;28;20067;-88
2021/03/23 14:22:04;;;;;;;40.13;21.88;;;;;;;;;;5113684;28;20059;-88
2021/03/23 14:24:30;;;;;;;43.95;23.42;;;;;;;;;;5078545;28;20039;-88
2021/03/23 14:26:56;;;;;;;39.28;22.20;;;;;;;;;;5061949;28;20055;-88
2021/03/23 14:29:23;;;;;;;38.20;22.90;;;;;;;;;;5078629;28;20196;-88
2021/03/23 14:31:49;;;;;;;39.90;23.20;;;;;;;;;;5095528;28;20103;-87
2021/03/23 14:34:15;;;;;;;39.63;21.65;;;;;;;;;;5095381;28;20054;-85
2021/03/23 14:36:42;;;;;;;42.08;24.50;;;;;;;;;;5095396;28;20058;-86